createdAt,value
2018-12-10T00:02:21.387Z,101122.33
2018-12-10T00:07:14.609Z,101124.86
2018-12-10T00:12:07.839Z,101126.81
2018-12-10T00:17:01.080Z,101138.81
2018-12-10T00:21:54.269Z,101139.11
2018-12-10T00:26:47.550Z,101144.29
2018-12-10T00:31:40.792Z,101152.16
2018-12-10T00:36:34.027Z,101153.36
2018-12-10T00:41:27.344Z,101169.70
2018-12-10T00:46:22.541Z,101181.76
2018-12-10T00:51:15.725Z,101189.97
2018-12-10T00:56:08.918Z,101197.47
2018-12-10T01:01:02.774Z,101204.39
2018-12-10T01:05:56.006Z,101208.25
2018-12-10T01:10:49.230Z,101214.83
2018-12-10T01:15:42.475Z,101220.64
2018-12-10T01:20:35.650Z,101217.98
2018-12-10T01:25:28.864Z,101229.84
2018-12-10T01:30:22.117Z,101241.03
2018-12-10T01:35:15.340Z,101252.77
2018-12-10T01:40:08.561Z,101258.77
2018-12-10T01:45:01.741Z,101275.67
2018-12-10T01:49:54.927Z,101277.45
2018-12-10T01:54:48.855Z,101284.36
2018-12-10T01:59:42.743Z,101286.55
2018-12-10T02:04:35.959Z,101288.37
2018-12-10T02:09:29.153Z,101302.59
2018-12-10T02:14:22.366Z,101298.05
2018-12-10T02:19:16.382Z,101314.53
2018-12-10T02:24:09.629Z,101314.00
2018-12-10T02:29:08.639Z,101306.27
2018-12-10T02:34:01.892Z,101309.47
2018-12-10T02:38:55.104Z,101312.82
2018-12-10T02:43:48.356Z,101317.16
2018-12-10T02:48:41.559Z,101318.73
2018-12-10T02:53:34.777Z,101329.86
2018-12-10T02:58:28.138Z,101322.52
2018-12-10T03:03:21.364Z,101325.25
2018-12-10T03:08:14.557Z,101333.37
2018-12-10T03:13:07.762Z,101340.59
2018-12-10T03:18:01.621Z,101350.91
2018-12-10T03:22:54.844Z,101349.34
2018-12-10T03:27:48.039Z,101362.50
2018-12-10T03:32:41.280Z,101362.97
2018-12-10T03:37:34.594Z,101371.05
2018-12-10T03:42:28.475Z,101363.48
2018-12-10T03:47:21.717Z,101370.02
2018-12-10T03:52:14.990Z,101365.28
2018-12-10T03:57:08.220Z,101370.14
2018-12-10T04:02:01.467Z,101371.70
2018-12-10T04:06:54.688Z,101376.03
2018-12-10T04:11:47.895Z,101385.62
2018-12-10T04:16:41.091Z,101390.53
2018-12-10T04:21:34.285Z,101384.10
2018-12-10T04:26:27.504Z,101371.75
2018-12-10T04:31:20.722Z,101383.34
2018-12-10T04:36:14.661Z,101390.05
2018-12-10T04:41:07.881Z,101391.03
2018-12-10T04:46:01.117Z,101393.79
2018-12-10T04:50:54.302Z,101396.00
2018-12-10T04:55:47.506Z,101406.41
2018-12-10T05:00:40.681Z,101414.70
2018-12-10T05:05:33.879Z,101433.16
2018-12-10T05:10:27.194Z,101437.83
2018-12-10T05:15:20.418Z,101446.06
2018-12-10T05:20:17.516Z,101447.80
2018-12-10T05:25:12.884Z,101447.33
2018-12-10T05:30:09.890Z,101450.69
2018-12-10T05:35:08.068Z,101456.11
2018-12-10T05:40:01.313Z,101471.22
2018-12-10T05:44:54.489Z,101471.69
2018-12-10T05:49:47.970Z,101470.97
2018-12-10T05:54:41.167Z,101478.13
2018-12-10T05:59:34.413Z,101485.19
2018-12-10T06:04:28.393Z,101490.80
2018-12-10T06:09:21.811Z,101490.02
2018-12-10T06:14:15.067Z,101479.30
2018-12-10T06:19:08.473Z,101477.74
2018-12-10T06:24:02.007Z,101495.65
2018-12-10T06:28:55.186Z,101507.58
2018-12-10T06:33:48.561Z,101514.16
2018-12-10T06:38:41.973Z,101511.88
2018-12-10T06:43:35.261Z,101524.59
2018-12-10T06:48:29.119Z,101525.77
2018-12-10T06:53:22.663Z,101536.84
2018-12-10T06:58:17.729Z,101537.67
2018-12-10T07:03:12.059Z,101547.05
2018-12-10T07:08:05.283Z,101540.41
2018-12-10T07:12:58.629Z,101544.17
2018-12-10T07:17:52.093Z,101546.70
2018-12-10T07:22:45.352Z,101548.80
2018-12-10T07:27:39.294Z,101552.42
2018-12-10T07:32:32.765Z,101555.03
2018-12-10T07:37:26.107Z,101562.92
2018-12-10T07:42:19.411Z,101566.29
2018-12-10T07:47:12.733Z,101577.19
2018-12-10T07:52:06.193Z,101580.44
2018-12-10T07:56:59.405Z,101583.24
2018-12-10T08:01:53.088Z,101592.63
2018-12-10T08:06:46.373Z,101598.81
2018-12-10T08:11:39.647Z,101595.06
2018-12-10T08:16:33.107Z,101603.98
2018-12-10T08:21:26.695Z,101608.31
2018-12-10T08:26:19.893Z,101617.05
2018-12-10T08:31:13.481Z,101627.09
2018-12-10T08:36:06.818Z,101631.66
2018-12-10T08:41:00.184Z,101633.44
2018-12-10T08:45:53.783Z,101647.00
2018-12-10T08:50:47.268Z,101641.94
2018-12-10T08:55:41.611Z,101645.20
2018-12-10T09:00:34.801Z,101654.73
2018-12-10T09:05:28.155Z,101653.84
2018-12-10T09:10:21.393Z,101647.73
2018-12-10T09:15:14.708Z,101651.73
2018-12-10T09:20:08.169Z,101662.05
2018-12-10T09:25:01.486Z,101663.53
2018-12-10T09:29:54.704Z,101663.27
2018-12-10T09:34:47.920Z,101678.55
2018-12-10T09:39:41.134Z,101678.66
2018-12-10T09:44:34.357Z,101680.52
2018-12-10T09:49:27.783Z,101676.95
2018-12-10T09:54:21.043Z,101669.17
2018-12-10T09:59:14.246Z,101672.19
2018-12-10T10:04:08.172Z,101665.45
2018-12-10T10:09:02.072Z,101668.06
2018-12-10T10:13:55.991Z,101674.30
2018-12-10T10:18:49.788Z,101677.87
2018-12-10T10:23:43.625Z,101667.65
2018-12-10T10:28:37.467Z,101664.91
2018-12-10T10:33:32.487Z,101659.95
2018-12-10T10:38:26.540Z,101661.43
2018-12-10T10:43:20.189Z,101662.97
2018-12-10T10:48:13.838Z,101663.20
2018-12-10T10:53:07.419Z,101667.65
2018-12-10T10:58:01.064Z,101671.48
2018-12-10T11:02:59.167Z,101665.83
2018-12-10T11:07:56.318Z,101662.95
2018-12-10T11:12:49.557Z,101669.72
2018-12-10T11:17:42.781Z,101667.11
2018-12-10T11:22:36.228Z,101662.42
2018-12-10T11:27:29.450Z,101655.66
2018-12-10T11:32:23.023Z,101655.90
2018-12-10T11:37:16.477Z,101643.47
2018-12-10T11:42:09.845Z,101640.73
2018-12-10T11:47:03.630Z,101634.22
2018-12-10T11:51:56.923Z,101629.77
2018-12-10T11:56:50.247Z,101630.16
2018-12-10T12:01:43.506Z,101626.27
2018-12-10T12:06:36.990Z,101632.06
2018-12-10T12:11:30.343Z,101638.22
2018-12-10T12:16:23.640Z,101626.78
2018-12-10T12:21:16.977Z,101648.30
2018-12-10T12:26:10.953Z,101646.27
2018-12-10T12:31:04.192Z,101640.79
2018-12-10T12:35:57.557Z,101637.17
2018-12-10T12:40:51.100Z,101637.01
2018-12-10T12:45:44.335Z,101638.23
2018-12-10T12:50:37.753Z,101637.19
2018-12-10T12:55:31.349Z,101648.45
2018-12-10T13:00:27.170Z,101637.82
2018-12-10T13:05:20.033Z,101628.40
2018-12-10T13:10:13.590Z,101629.70
2018-12-10T13:15:08.172Z,101628.09
2018-12-10T13:20:01.558Z,101608.83
2018-12-10T13:24:54.978Z,101617.85
2018-12-10T13:29:48.467Z,101625.81
2018-12-10T13:34:41.928Z,101622.90
2018-12-10T13:39:35.313Z,101631.11
2018-12-10T13:44:28.877Z,101625.80
2018-12-10T13:49:22.476Z,101615.38
2018-12-10T13:54:15.900Z,101624.46
2018-12-10T13:59:09.393Z,101626.60
2018-12-10T14:04:06.200Z,101629.39
2018-12-10T14:08:59.553Z,101630.26
2018-12-10T14:13:53.617Z,101625.96
2018-12-10T14:18:46.967Z,101631.88
2018-12-10T14:23:40.469Z,101636.69
2018-12-10T14:28:34.041Z,101639.61
2018-12-10T14:33:27.801Z,101630.04
2018-12-10T14:38:21.493Z,101631.38
2018-12-10T14:43:14.890Z,101644.76
2018-12-10T14:48:08.531Z,101651.87
2018-12-10T14:53:01.916Z,101652.67
2018-12-10T14:57:55.321Z,101647.80
2018-12-10T15:02:48.830Z,101654.19
2018-12-10T15:07:42.296Z,101661.70
2018-12-10T15:12:38.355Z,101669.47
2018-12-10T15:17:31.728Z,101681.79
2018-12-10T15:22:24.996Z,101692.67
2018-12-10T15:27:19.460Z,101692.06
2018-12-10T15:32:12.822Z,101707.16
2018-12-10T15:37:06.655Z,101697.35
2018-12-10T15:41:59.980Z,101695.77
2018-12-10T15:46:54.665Z,101700.06
2018-12-10T15:51:48.153Z,101715.08
2018-12-10T15:56:43.137Z,101720.59
2018-12-10T16:01:36.699Z,101714.47
2018-12-10T16:06:30.198Z,101717.63
2018-12-10T16:11:23.437Z,101730.27
2018-12-10T16:16:17.108Z,101730.66
2018-12-10T16:21:10.695Z,101738.33
2018-12-10T16:26:03.922Z,101742.77
2018-12-10T16:30:57.945Z,101742.75
2018-12-10T16:35:51.849Z,101748.71
2018-12-10T16:40:45.263Z,101748.73
2018-12-10T16:45:39.242Z,101745.02
2018-12-10T16:50:32.724Z,101747.27
2018-12-10T16:55:26.275Z,101750.59
2018-12-10T17:00:20.319Z,101743.64
2018-12-10T17:05:13.723Z,101752.41
2018-12-10T17:10:09.683Z,101749.66
2018-12-10T17:15:03.946Z,101754.03
2018-12-10T17:19:57.420Z,101764.52
2018-12-10T17:24:50.941Z,101768.92
2018-12-10T17:29:44.423Z,101774.05
2018-12-10T17:34:37.822Z,101778.69
2018-12-10T17:39:31.157Z,101779.19
2018-12-10T17:44:25.273Z,101790.18
2018-12-10T17:49:19.117Z,101785.13
2018-12-10T17:54:12.510Z,101800.42
2018-12-10T17:59:06.221Z,101804.78
2018-12-10T18:03:59.648Z,101798.90
2018-12-10T18:08:53.114Z,101795.21
2018-12-10T18:13:46.613Z,101804.50
2018-12-10T18:18:39.853Z,101807.13
2018-12-10T18:23:33.433Z,101809.97
2018-12-10T18:28:26.778Z,101806.99
2018-12-10T18:33:20.317Z,101814.84
2018-12-10T18:38:14.856Z,101816.94
2018-12-10T18:43:08.642Z,101815.37
2018-12-10T18:48:02.225Z,101822.41
2018-12-10T18:52:55.759Z,101821.17
2018-12-10T18:57:50.211Z,101814.10
2018-12-10T19:02:44.221Z,101813.84
2018-12-10T19:07:37.649Z,101814.49
2018-12-10T19:12:31.564Z,101803.22
2018-12-10T19:17:24.867Z,101809.16
2018-12-10T19:22:18.551Z,101806.35
2018-12-10T19:27:12.361Z,101811.50
2018-12-10T19:32:06.126Z,101812.91
2018-12-10T19:37:00.247Z,101808.59
2018-12-10T19:41:53.595Z,101810.16
2018-12-10T19:46:47.252Z,101817.21
2018-12-10T19:51:40.895Z,101813.41
2018-12-10T19:56:34.361Z,101825.47
2018-12-10T20:01:34.610Z,101822.89
2018-12-10T20:06:32.290Z,101820.98
2018-12-10T20:11:25.875Z,101827.39
2018-12-10T20:16:19.307Z,101823.14
2018-12-10T20:21:12.864Z,101807.81
2018-12-10T20:26:06.232Z,101827.74
2018-12-10T20:30:59.585Z,101838.39
2018-12-10T20:35:52.973Z,101830.81
2018-12-10T20:40:46.270Z,101825.77
2018-12-10T20:45:39.578Z,101821.78
2018-12-10T20:50:33.278Z,101819.95
2018-12-10T20:55:26.582Z,101831.70
2018-12-10T21:00:20.220Z,101845.83
2018-12-10T21:05:13.655Z,101847.26
2018-12-10T21:10:09.116Z,101835.20
2018-12-10T21:15:02.588Z,101849.95
2018-12-10T21:19:56.684Z,101840.83
2018-12-10T21:24:50.081Z,101832.31
2018-12-10T21:29:43.317Z,101839.34
2018-12-10T21:34:36.997Z,101843.88
2018-12-10T21:39:30.416Z,101847.79
2018-12-10T21:44:23.717Z,101848.34
2018-12-10T21:49:17.020Z,101848.45
2018-12-10T21:54:10.327Z,101834.63
2018-12-10T21:59:04.370Z,101839.54
2018-12-10T22:03:57.612Z,101841.09
2018-12-10T22:08:50.865Z,101841.08
2018-12-10T22:13:44.154Z,101845.11
2018-12-10T22:18:37.411Z,101836.52
2018-12-10T22:23:30.640Z,101832.86
2018-12-10T22:28:23.944Z,101831.36
2018-12-10T22:33:17.177Z,101828.23
2018-12-10T22:38:10.540Z,101831.78
2018-12-10T22:43:03.795Z,101823.24
2018-12-10T22:47:57.065Z,101827.59
2018-12-10T22:52:50.283Z,101832.63
2018-12-10T22:57:43.463Z,101834.78
2018-12-10T23:02:36.683Z,101837.59
2018-12-10T23:07:29.879Z,101832.98
2018-12-10T23:12:23.073Z,101833.87
2018-12-10T23:17:16.321Z,101833.22
2018-12-10T23:22:09.649Z,101834.72
2018-12-10T23:27:03.253Z,101833.45
2018-12-10T23:31:56.469Z,101833.13
2018-12-10T23:36:49.668Z,101842.12
2018-12-10T23:41:42.897Z,101840.19
2018-12-10T23:46:36.096Z,101843.00
2018-12-10T23:51:29.261Z,101846.40
2018-12-10T23:56:22.461Z,101846.03
